createdAt,value
2023-03-28T00:01:07.280Z,101019.03
2023-03-28T00:03:39.662Z,101016.28
2023-03-28T00:06:12.774Z,101025.38
2023-03-28T00:08:40.210Z,101024.81
2023-03-28T00:11:10.064Z,101024.16
2023-03-28T00:13:37.231Z,101031.09
2023-03-28T00:16:06.856Z,101024.66
2023-03-28T00:18:37.530Z,101026.56
2023-03-28T00:21:05.479Z,101031.25
2023-03-28T00:23:33.846Z,101040.13
2023-03-28T00:26:07.667Z,101035.31
2023-03-28T00:28:35.109Z,101039.97
2023-03-28T00:31:06.124Z,101051.63
2023-03-28T00:33:33.056Z,101033.75
2023-03-28T00:35:59.734Z,101037.75
2023-03-28T00:38:27.519Z,101045.13
2023-03-28T00:40:58.537Z,101051.69
2023-03-28T00:43:45.903Z,101055.72
2023-03-28T00:46:22.711Z,101058.91
2023-03-28T00:48:53.533Z,101060.69
2023-03-28T00:51:32.004Z,101066.66
2023-03-28T00:54:00.849Z,101082.72
2023-03-28T00:56:32.174Z,101075.38
2023-03-28T00:59:02.901Z,101080.06
2023-03-28T01:01:29.400Z,101087.44
2023-03-28T01:04:02.910Z,101092.75
2023-03-28T01:06:34.714Z,101100.59
2023-03-28T01:09:04.611Z,101110.66
2023-03-28T01:11:32.869Z,101129.16
2023-03-28T01:14:02.131Z,101127.31
2023-03-28T01:16:30.857Z,101139.47
2023-03-28T01:19:02.550Z,101150.50
2023-03-28T01:22:00.994Z,101141.72
2023-03-28T01:25:06.673Z,101139.50
2023-03-28T01:28:02.317Z,101138.09
2023-03-28T01:30:40.994Z,101140.31
2023-03-28T01:33:10.435Z,101146.56
2023-03-28T01:35:46.299Z,101146.31
2023-03-28T01:38:31.811Z,101130.72
2023-03-28T01:41:23.696Z,101144.75
2023-03-28T01:44:05.822Z,101139.56
2023-03-28T01:47:00.122Z,101122.47
2023-03-28T01:49:35.874Z,101129.00
2023-03-28T01:52:30.069Z,101121.41
2023-03-28T01:55:21.367Z,101119.47
2023-03-28T01:58:11.564Z,101122.47
2023-03-28T02:00:43.227Z,101132.84
2023-03-28T02:03:22.796Z,101125.81
2023-03-28T02:05:50.265Z,101130.13
2023-03-28T02:08:18.775Z,101133.16
2023-03-28T02:10:46.683Z,101139.38
2023-03-28T02:13:25.268Z,101147.69
2023-03-28T02:16:00.463Z,101161.88
2023-03-28T02:18:37.026Z,101160.75
2023-03-28T02:21:27.792Z,101160.63
2023-03-28T02:23:56.034Z,101168.00
2023-03-28T02:26:25.127Z,101166.41
2023-03-28T02:28:54.925Z,101181.06
2023-03-28T02:31:22.448Z,101181.53
2023-03-28T02:33:50.648Z,101178.53
2023-03-28T02:36:38.056Z,101173.69
2023-03-28T02:39:23.327Z,101192.25
2023-03-28T02:41:59.025Z,101189.19
2023-03-28T02:44:31.448Z,101189.03
2023-03-28T02:47:09.339Z,101188.69
2023-03-28T02:50:04.628Z,101201.31
2023-03-28T02:52:52.141Z,101194.56
2023-03-28T02:55:46.245Z,101202.44
2023-03-28T02:58:26.343Z,101213.81
2023-03-28T03:00:53.967Z,101219.06
2023-03-28T03:03:21.768Z,101228.63
2023-03-28T03:05:48.250Z,101234.25
2023-03-28T03:08:15.564Z,101223.38
2023-03-28T03:10:42.052Z,101238.81
2023-03-28T03:13:08.534Z,101231.03
2023-03-28T03:15:35.599Z,101238.16
2023-03-28T03:18:02.277Z,101238.31
2023-03-28T03:20:33.436Z,101248.78
2023-03-28T03:23:01.100Z,101252.75
2023-03-28T03:25:28.501Z,101248.66
2023-03-28T03:27:55.012Z,101255.06
2023-03-28T03:30:21.608Z,101256.41
2023-03-28T03:32:48.112Z,101249.97
2023-03-28T03:35:14.643Z,101259.16
2023-03-28T03:37:41.418Z,101259.75
2023-03-28T03:40:09.768Z,101265.31
2023-03-28T03:42:37.024Z,101269.91
2023-03-28T03:45:04.255Z,101272.94
2023-03-28T03:47:30.900Z,101274.53
2023-03-28T03:49:57.345Z,101275.06
2023-03-28T03:52:23.831Z,101283.16
2023-03-28T03:54:50.565Z,101284.28
2023-03-28T03:57:17.469Z,101290.16
2023-03-28T03:59:44.062Z,101297.22
2023-03-28T04:02:10.553Z,101293.50
2023-03-28T04:04:37.166Z,101295.13
2023-03-28T04:07:03.623Z,101298.34
2023-03-28T04:09:30.099Z,101295.63
2023-03-28T04:11:56.674Z,101306.97
2023-03-28T04:14:23.082Z,101312.09
2023-03-28T04:16:53.814Z,101311.28
2023-03-28T04:19:20.434Z,101311.59
2023-03-28T04:21:48.514Z,101309.16
2023-03-28T04:24:16.016Z,101308.59
2023-03-28T04:26:43.716Z,101326.41
2023-03-28T04:29:10.472Z,101330.97
2023-03-28T04:31:39.427Z,101337.72
2023-03-28T04:34:06.805Z,101346.38
2023-03-28T04:36:33.515Z,101338.81
2023-03-28T04:39:02.414Z,101349.59
2023-03-28T04:41:32.127Z,101361.19
2023-03-28T04:43:58.851Z,101366.84
2023-03-28T04:46:25.694Z,101374.13
2023-03-28T04:48:56.642Z,101367.38
2023-03-28T04:51:24.910Z,101379.56
2023-03-28T04:53:51.300Z,101380.91
2023-03-28T04:56:17.796Z,101383.03
2023-03-28T04:58:44.202Z,101389.50
2023-03-28T05:01:10.674Z,101391.66
2023-03-28T05:03:37.927Z,101396.16
2023-03-28T05:06:05.393Z,101404.25
2023-03-28T05:08:32.893Z,101410.00
2023-03-28T05:10:59.645Z,101412.66
2023-03-28T05:13:26.270Z,101409.97
2023-03-28T05:15:52.859Z,101422.41
2023-03-28T05:18:19.394Z,101426.75
2023-03-28T05:20:45.912Z,101429.72
2023-03-28T05:23:12.676Z,101435.63
2023-03-28T05:25:39.153Z,101435.38
2023-03-28T05:28:05.984Z,101442.59
2023-03-28T05:30:32.786Z,101443.13
2023-03-28T05:33:00.686Z,101448.63
2023-03-28T05:35:27.285Z,101445.03
2023-03-28T05:37:53.686Z,101450.22
2023-03-28T05:40:20.477Z,101453.13
2023-03-28T05:42:46.910Z,101452.53
2023-03-28T05:45:13.437Z,101465.50
2023-03-28T05:47:40.085Z,101462.50
2023-03-28T05:50:07.808Z,101470.22
2023-03-28T05:52:34.257Z,101462.53
2023-03-28T05:55:00.735Z,101471.22
2023-03-28T05:57:27.162Z,101479.25
2023-03-28T05:59:53.817Z,101485.56
2023-03-28T06:02:22.014Z,101481.00
2023-03-28T06:04:48.501Z,101479.81
2023-03-28T06:07:15.871Z,101479.03
2023-03-28T06:09:42.895Z,101488.81
2023-03-28T06:12:09.775Z,101492.00
2023-03-28T06:14:36.249Z,101494.19
2023-03-28T06:17:02.831Z,101493.66
2023-03-28T06:19:29.340Z,101499.28
2023-03-28T06:21:55.879Z,101496.31
2023-03-28T06:24:22.798Z,101506.91
2023-03-28T06:26:49.200Z,101509.31
2023-03-28T06:29:16.258Z,101512.84
2023-03-28T06:31:43.047Z,101518.53
2023-03-28T06:34:09.624Z,101523.13
2023-03-28T06:36:36.099Z,101525.00
2023-03-28T06:39:02.924Z,101521.41
2023-03-28T06:41:29.627Z,101536.88
2023-03-28T06:43:56.042Z,101539.56
2023-03-28T06:46:22.530Z,101541.19
2023-03-28T06:48:49.032Z,101549.28
2023-03-28T06:51:15.545Z,101547.38
2023-03-28T06:53:42.034Z,101548.22
2023-03-28T06:56:08.969Z,101557.41
2023-03-28T06:58:35.525Z,101560.91
2023-03-28T07:01:02.513Z,101556.88
2023-03-28T07:03:32.145Z,101567.69
2023-03-28T07:05:58.911Z,101562.78
2023-03-28T07:08:25.452Z,101563.88
2023-03-28T07:10:51.896Z,101571.69
2023-03-28T07:13:18.334Z,101569.28
2023-03-28T07:15:44.894Z,101575.50
2023-03-28T07:18:11.403Z,101579.00
2023-03-28T07:20:39.934Z,101587.66
2023-03-28T07:23:06.892Z,101588.19
2023-03-28T07:25:34.094Z,101595.47
2023-03-28T07:28:00.568Z,101609.72
2023-03-28T07:30:27.323Z,101608.06
2023-03-28T07:33:04.526Z,101616.19
2023-03-28T07:35:41.824Z,101618.56
2023-03-28T07:38:08.357Z,101624.03
2023-03-28T07:40:34.869Z,101621.03
2023-03-28T07:43:01.506Z,101622.41
2023-03-28T07:45:28.471Z,101627.91
2023-03-28T07:47:55.065Z,101635.59
2023-03-28T07:50:24.442Z,101631.69
2023-03-28T07:52:57.230Z,101637.81
2023-03-28T07:55:25.880Z,101635.19
2023-03-28T07:57:52.685Z,101643.63
2023-03-28T08:00:22.475Z,101652.53
2023-03-28T08:02:49.689Z,101646.84
2023-03-28T08:05:16.668Z,101660.31
2023-03-28T08:07:45.759Z,101664.53
2023-03-28T08:10:13.270Z,101676.28
2023-03-28T08:12:39.782Z,101674.28
2023-03-28T08:15:07.232Z,101675.59
2023-03-28T08:17:34.003Z,101683.03
2023-03-28T08:20:00.524Z,101685.03
2023-03-28T08:22:27.079Z,101694.19
2023-03-28T08:24:53.557Z,101691.47
2023-03-28T08:27:19.933Z,101700.56
2023-03-28T08:29:46.473Z,101699.00
2023-03-28T08:32:13.689Z,101710.94
2023-03-28T08:34:40.543Z,101703.53
2023-03-28T08:37:07.080Z,101713.09
2023-03-28T08:39:34.712Z,101723.53
2023-03-28T08:42:16.454Z,101722.38
2023-03-28T08:44:48.320Z,101722.81
2023-03-28T08:47:46.539Z,101732.25
2023-03-28T08:50:24.436Z,101738.16
2023-03-28T08:52:51.795Z,101743.75
2023-03-28T08:55:32.480Z,101748.28
2023-03-28T08:57:59.806Z,101752.41
2023-03-28T09:00:36.885Z,101757.63
2023-03-28T09:03:11.935Z,101762.44
2023-03-28T09:05:52.271Z,101765.44
2023-03-28T09:08:27.741Z,101762.88
2023-03-28T09:11:07.731Z,101778.53
2023-03-28T09:13:52.417Z,101783.09
2023-03-28T09:16:34.110Z,101794.06
2023-03-28T09:19:07.048Z,101800.78
2023-03-28T09:21:46.136Z,101812.53
2023-03-28T09:24:25.829Z,101800.25
2023-03-28T09:27:29.289Z,101803.25
2023-03-28T09:30:03.935Z,101813.66
2023-03-28T09:32:37.287Z,101827.22
2023-03-28T09:35:16.303Z,101817.09
2023-03-28T09:37:46.917Z,101819.31
2023-03-28T09:40:14.262Z,101819.13
2023-03-28T09:42:49.676Z,101825.31
2023-03-28T09:45:25.353Z,101828.94
2023-03-28T09:47:52.459Z,101826.56
2023-03-28T09:50:19.880Z,101833.13
2023-03-28T09:52:48.610Z,101836.03
2023-03-28T09:55:24.666Z,101849.63
2023-03-28T09:58:12.246Z,101842.00
2023-03-28T10:00:46.279Z,101859.50
2023-03-28T10:03:23.196Z,101846.84
2023-03-28T10:05:51.645Z,101846.22
2023-03-28T10:08:23.336Z,101860.00
2023-03-28T10:11:13.213Z,101854.53
2023-03-28T10:13:42.412Z,101858.47
2023-03-28T10:16:11.195Z,101849.88
2023-03-28T10:18:40.500Z,101866.97
2023-03-28T10:21:13.102Z,101867.03
2023-03-28T10:23:42.525Z,101869.53
2023-03-28T10:26:12.914Z,101869.16
2023-03-28T10:28:43.287Z,101883.25
2023-03-28T10:31:22.300Z,101885.19
2023-03-28T10:33:52.858Z,101879.41
2023-03-28T10:36:43.558Z,101888.03
2023-03-28T10:39:39.481Z,101870.69
2023-03-28T10:42:05.959Z,101869.66
2023-03-28T10:44:37.675Z,101880.13
2023-03-28T10:47:08.877Z,101881.31
2023-03-28T10:49:44.927Z,101877.03
2023-03-28T10:52:22.682Z,101875.78
2023-03-28T10:55:04.165Z,101871.28
2023-03-28T10:57:42.721Z,101880.16
2023-03-28T11:00:23.851Z,101875.03
2023-03-28T11:02:53.261Z,101872.56
2023-03-28T11:05:42.387Z,101883.50
2023-03-28T11:08:17.878Z,101875.69
2023-03-28T11:10:57.385Z,101862.22
2023-03-28T11:13:49.037Z,101873.44
2023-03-28T11:16:25.980Z,101865.38
2023-03-28T11:19:07.162Z,101871.53
2023-03-28T11:21:52.303Z,101874.19
2023-03-28T11:24:56.536Z,101870.94
2023-03-28T11:27:42.072Z,101880.88
2023-03-28T11:30:20.972Z,101866.44
2023-03-28T11:33:04.265Z,101866.97
2023-03-28T11:35:41.952Z,101874.94
2023-03-28T11:38:14.482Z,101875.94
2023-03-28T11:40:59.510Z,101871.00
2023-03-28T11:43:36.020Z,101868.72
2023-03-28T11:46:13.814Z,101867.94
2023-03-28T11:48:49.888Z,101874.00
2023-03-28T11:51:23.092Z,101877.50
2023-03-28T11:54:05.222Z,101875.25
2023-03-28T11:56:43.946Z,101876.84
2023-03-28T11:59:17.600Z,101874.59
2023-03-28T12:01:47.934Z,101880.69
2023-03-28T12:04:21.439Z,101883.84
2023-03-28T12:07:08.940Z,101874.94
2023-03-28T12:10:03.231Z,101877.75
2023-03-28T12:13:02.203Z,101881.28
2023-03-28T12:15:41.173Z,101883.19
2023-03-28T12:18:15.668Z,101866.22
2023-03-28T12:20:56.015Z,101867.22
2023-03-28T12:23:43.018Z,101880.88
2023-03-28T12:26:38.802Z,101874.94
2023-03-28T12:29:22.935Z,101869.03
2023-03-28T12:31:57.370Z,101870.34
2023-03-28T12:34:27.150Z,101880.16
2023-03-28T12:37:14.713Z,101867.53
2023-03-28T12:40:08.306Z,101880.50
2023-03-28T12:42:36.657Z,101884.84
2023-03-28T12:45:09.437Z,101872.38
2023-03-28T12:47:41.636Z,101877.16
2023-03-28T12:50:25.927Z,101897.81
2023-03-28T12:52:53.538Z,101880.22
2023-03-28T12:55:26.768Z,101893.63
2023-03-28T12:58:11.100Z,101881.88
2023-03-28T13:01:06.882Z,101886.75
2023-03-28T13:03:42.347Z,101894.84
2023-03-28T13:06:24.332Z,101886.75
2023-03-28T13:09:23.024Z,101886.78
2023-03-28T13:12:03.241Z,101884.84
2023-03-28T13:14:42.644Z,101887.38
2023-03-28T13:17:23.322Z,101890.34
2023-03-28T13:19:51.993Z,101920.84
2023-03-28T13:22:53.607Z,101902.59
2023-03-28T13:25:22.978Z,101893.13
2023-03-28T13:27:51.713Z,101911.81
2023-03-28T13:30:24.745Z,101908.56
2023-03-28T13:32:54.417Z,101903.34
2023-03-28T13:35:39.235Z,101881.91
2023-03-28T13:38:27.516Z,101887.09
2023-03-28T13:41:35.774Z,101875.78
2023-03-28T13:44:06.459Z,101893.38
2023-03-28T13:46:43.104Z,101901.00
2023-03-28T13:49:31.370Z,101896.50
2023-03-28T13:52:19.414Z,101898.19
2023-03-28T13:54:46.289Z,101884.56
2023-03-28T13:57:17.613Z,101893.53
2023-03-28T13:59:59.681Z,101898.22
2023-03-28T14:02:29.145Z,101892.88
2023-03-28T14:05:04.045Z,101908.72
2023-03-28T14:07:30.918Z,101893.25
2023-03-28T14:09:58.178Z,101885.97
2023-03-28T14:12:28.822Z,101885.97
2023-03-28T14:14:58.517Z,101901.28
2023-03-28T14:17:36.314Z,101889.06
2023-03-28T14:20:05.850Z,101903.03
2023-03-28T14:22:43.285Z,101906.63
2023-03-28T14:25:21.423Z,101898.25
2023-03-28T14:27:56.740Z,101889.78
2023-03-28T14:30:32.004Z,101878.47
2023-03-28T14:33:18.663Z,101884.19
2023-03-28T14:35:57.628Z,101868.22
2023-03-28T14:38:36.335Z,101884.66
2023-03-28T14:41:22.522Z,101863.44
2023-03-28T14:43:55.025Z,101868.00
2023-03-28T14:46:32.807Z,101875.66
2023-03-28T14:49:03.684Z,101877.88
2023-03-28T14:51:40.353Z,101887.06
2023-03-28T14:54:12.417Z,101882.41
2023-03-28T14:56:39.144Z,101882.78
2023-03-28T14:59:07.396Z,101878.38
2023-03-28T15:01:34.595Z,101872.03
2023-03-28T15:04:09.887Z,101864.69
2023-03-28T15:06:57.476Z,101873.00
2023-03-28T15:09:26.518Z,101884.41
2023-03-28T15:11:53.088Z,101866.69
2023-03-28T15:14:35.860Z,101858.66
2023-03-28T15:17:02.827Z,101857.59
2023-03-28T15:19:38.893Z,101853.88
2023-03-28T15:22:11.477Z,101863.28
2023-03-28T15:24:39.031Z,101870.47
2023-03-28T15:27:07.571Z,101861.03
2023-03-28T15:29:37.743Z,101862.16
2023-03-28T15:32:14.936Z,101870.09
2023-03-28T15:34:45.741Z,101845.03
2023-03-28T15:37:19.827Z,101859.06
2023-03-28T15:39:49.536Z,101859.06
2023-03-28T15:42:19.183Z,101862.78
2023-03-28T15:45:22.426Z,101858.03
2023-03-28T15:47:53.256Z,101853.56
2023-03-28T15:50:29.979Z,101839.22
2023-03-28T15:53:02.589Z,101858.88
2023-03-28T15:55:31.199Z,101841.00
2023-03-28T15:57:58.244Z,101853.88
2023-03-28T16:00:45.630Z,101840.09
2023-03-28T16:03:32.822Z,101849.50
2023-03-28T16:06:14.085Z,101851.38
2023-03-28T16:08:47.064Z,101841.34
2023-03-28T16:11:23.283Z,101842.75
2023-03-28T16:13:50.879Z,101836.03
2023-03-28T16:16:24.623Z,101821.16
2023-03-28T16:18:51.149Z,101834.38
2023-03-28T16:21:19.489Z,101837.72
2023-03-28T16:23:46.790Z,101821.34
2023-03-28T16:26:14.287Z,101818.63
2023-03-28T16:28:41.019Z,101820.66
2023-03-28T16:33:38.993Z,101831.72
2023-03-28T16:36:05.776Z,101831.19
2023-03-28T16:38:32.321Z,101806.38
2023-03-28T16:40:58.765Z,101824.31
2023-03-28T16:43:25.248Z,101813.53
2023-03-28T16:45:52.333Z,101815.06
2023-03-28T16:48:18.841Z,101808.31
2023-03-28T16:51:05.414Z,101808.28
2023-03-28T16:53:36.272Z,101806.63
2023-03-28T16:56:03.056Z,101800.28
2023-03-28T16:58:30.009Z,101800.69
2023-03-28T17:00:56.697Z,101794.53
2023-03-28T17:05:49.898Z,101800.69
2023-03-28T17:08:16.366Z,101791.81
2023-03-28T17:10:43.511Z,101785.56
2023-03-28T17:13:10.586Z,101778.22
2023-03-28T17:15:37.104Z,101787.06
2023-03-28T17:18:05.635Z,101778.22
2023-03-28T17:20:32.258Z,101778.28
2023-03-28T17:22:58.814Z,101777.16
2023-03-28T17:25:25.603Z,101777.97
2023-03-28T17:27:52.121Z,101778.34
2023-03-28T17:30:18.639Z,101766.00
2023-03-28T17:32:45.507Z,101761.38
2023-03-28T17:35:12.250Z,101758.66
2023-03-28T17:37:39.362Z,101757.03
2023-03-28T17:40:06.882Z,101768.50
2023-03-28T17:42:33.429Z,101763.28
2023-03-28T17:45:00.003Z,101754.31
2023-03-28T17:47:26.584Z,101755.94
2023-03-28T17:49:55.995Z,101754.94
2023-03-28T17:52:22.729Z,101752.47
2023-03-28T17:54:51.007Z,101747.22
2023-03-28T17:57:18.558Z,101751.28
2023-03-28T17:59:45.173Z,101740.56
2023-03-28T18:02:11.639Z,101742.47
2023-03-28T18:04:38.137Z,101739.97
2023-03-28T18:07:15.625Z,101737.84
2023-03-28T18:09:43.509Z,101736.97
2023-03-28T18:12:10.096Z,101728.41
2023-03-28T18:14:37.961Z,101730.66
2023-03-28T18:17:05.386Z,101727.34
2023-03-28T18:19:32.121Z,101733.31
2023-03-28T18:21:58.907Z,101732.84
2023-03-28T18:24:26.609Z,101733.56
2023-03-28T18:26:53.449Z,101728.44
2023-03-28T18:29:20.195Z,101726.34
2023-03-28T18:31:47.230Z,101730.56
2023-03-28T18:34:14.085Z,101725.97
2023-03-28T18:36:41.920Z,101731.41
2023-03-28T18:39:10.304Z,101731.94
2023-03-28T18:41:37.613Z,101723.41
2023-03-28T18:44:04.794Z,101721.75
2023-03-28T18:46:31.352Z,101724.00
2023-03-28T18:49:01.394Z,101730.91
2023-03-28T18:51:28.898Z,101726.56
2023-03-28T18:53:55.561Z,101723.84
2023-03-28T18:56:22.737Z,101724.44
2023-03-28T18:58:50.301Z,101717.97
2023-03-28T19:01:17.418Z,101713.19
2023-03-28T19:03:44.909Z,101715.38
2023-03-28T19:06:13.272Z,101714.56
2023-03-28T19:08:40.389Z,101703.84
2023-03-28T19:11:13.258Z,101702.50
2023-03-28T19:13:41.028Z,101696.91
2023-03-28T19:16:13.347Z,101698.91
2023-03-28T19:18:41.679Z,101690.88
2023-03-28T19:21:09.366Z,101691.38
2023-03-28T19:23:36.915Z,101685.22
2023-03-28T19:26:05.642Z,101683.09
2023-03-28T19:28:32.515Z,101682.31
2023-03-28T19:31:01.517Z,101679.31
2023-03-28T19:33:28.635Z,101688.47
2023-03-28T19:35:55.961Z,101672.91
2023-03-28T19:38:24.409Z,101668.06
2023-03-28T19:40:57.176Z,101668.50
2023-03-28T19:43:24.325Z,101659.91
2023-03-28T19:45:50.859Z,101664.28
2023-03-28T19:48:17.372Z,101666.47
2023-03-28T19:50:44.316Z,101652.16
2023-03-28T19:53:11.289Z,101657.88
2023-03-28T19:55:37.770Z,101648.78
2023-03-28T19:58:07.272Z,101645.88
2023-03-28T20:00:33.736Z,101646.38
2023-03-28T20:03:00.763Z,101648.00
2023-03-28T20:05:27.585Z,101642.34
2023-03-28T20:07:54.008Z,101640.84
2023-03-28T20:10:20.733Z,101631.66
2023-03-28T20:12:47.224Z,101640.84
2023-03-28T20:15:13.791Z,101630.91
2023-03-28T20:17:40.221Z,101627.34
2023-03-28T20:20:08.166Z,101619.03
2023-03-28T20:22:35.110Z,101623.38
2023-03-28T20:25:01.785Z,101622.69
2023-03-28T20:27:29.162Z,101618.00
2023-03-28T20:29:55.722Z,101615.84
2023-03-28T20:32:22.144Z,101612.75
2023-03-28T20:34:48.590Z,101610.56
2023-03-28T20:37:15.003Z,101600.31
2023-03-28T20:39:41.790Z,101593.72
2023-03-28T20:42:08.985Z,101592.69
2023-03-28T20:44:38.530Z,101584.16
2023-03-28T20:47:07.570Z,101578.25
2023-03-28T20:49:34.410Z,101591.72
2023-03-28T20:52:01.715Z,101587.41
2023-03-28T20:54:28.450Z,101583.69
2023-03-28T20:56:55.763Z,101575.63
2023-03-28T20:59:23.744Z,101567.75
2023-03-28T21:01:50.169Z,101565.59
2023-03-28T21:04:17.007Z,101570.19
2023-03-28T21:06:44.916Z,101571.78
2023-03-28T21:09:15.557Z,101568.50
2023-03-28T21:11:42.186Z,101565.19
2023-03-28T21:14:11.724Z,101561.94
2023-03-28T21:16:38.311Z,101566.75
2023-03-28T21:19:05.149Z,101555.44
2023-03-28T21:21:33.783Z,101563.84
2023-03-28T21:24:01.577Z,101557.59
2023-03-28T21:26:29.075Z,101557.03
2023-03-28T21:28:55.802Z,101544.91
2023-03-28T21:31:26.059Z,101548.78
2023-03-28T21:33:55.386Z,101539.56
2023-03-28T21:36:22.133Z,101543.59
2023-03-28T21:38:48.737Z,101543.03
2023-03-28T21:41:15.900Z,101536.06
2023-03-28T21:43:42.821Z,101533.44
2023-03-28T21:46:11.245Z,101531.78
2023-03-28T21:48:38.068Z,101531.25
2023-03-28T21:51:05.164Z,101524.78
2023-03-28T21:53:34.820Z,101530.22
2023-03-28T21:56:01.802Z,101526.19
2023-03-28T21:58:31.774Z,101524.31
2023-03-28T22:00:59.518Z,101525.91
2023-03-28T22:03:27.183Z,101524.28
2023-03-28T22:05:54.359Z,101524.56
2023-03-28T22:08:22.105Z,101522.66
2023-03-28T22:10:52.552Z,101526.47
2023-03-28T22:13:20.164Z,101518.16
2023-03-28T22:15:46.902Z,101519.22
2023-03-28T22:18:13.619Z,101512.78
2023-03-28T22:20:42.477Z,101506.84
2023-03-28T22:23:09.977Z,101503.09
2023-03-28T22:25:38.158Z,101500.41
2023-03-28T22:28:09.246Z,101501.22
2023-03-28T22:30:39.636Z,101498.78
2023-03-28T22:33:08.985Z,101498.53
2023-03-28T22:35:35.704Z,101506.63
2023-03-28T22:38:02.626Z,101499.56
2023-03-28T22:40:29.204Z,101495.56
2023-03-28T22:42:55.924Z,101492.06
2023-03-28T22:45:23.954Z,101484.50
2023-03-28T22:47:50.626Z,101485.06
2023-03-28T22:50:18.660Z,101475.03
2023-03-28T22:52:46.437Z,101489.91
2023-03-28T22:55:13.300Z,101486.66
2023-03-28T22:57:41.964Z,101488.00
2023-03-28T23:00:13.014Z,101486.94
2023-03-28T23:02:39.500Z,101476.41
2023-03-28T23:05:07.787Z,101484.50
2023-03-28T23:07:36.472Z,101482.31
2023-03-28T23:10:05.924Z,101483.69
2023-03-28T23:12:32.347Z,101477.22
2023-03-28T23:14:58.875Z,101475.59
2023-03-28T23:17:26.230Z,101466.66
2023-03-28T23:19:52.896Z,101459.13
2023-03-28T23:22:19.361Z,101456.97
2023-03-28T23:24:50.527Z,101457.78
2023-03-28T23:27:20.549Z,101451.56
2023-03-28T23:29:46.984Z,101449.41
2023-03-28T23:32:13.478Z,101448.31
2023-03-28T23:34:40.236Z,101438.88
2023-03-28T23:37:07.092Z,101438.59
2023-03-28T23:39:33.636Z,101430.25
2023-03-28T23:42:00.167Z,101426.72
2023-03-28T23:44:27.726Z,101419.44
2023-03-28T23:46:56.095Z,101416.22
2023-03-28T23:49:22.613Z,101411.63
2023-03-28T23:51:49.083Z,101408.91
2023-03-28T23:54:17.995Z,101409.75
2023-03-28T23:56:44.923Z,101406.78
2023-03-28T23:59:11.996Z,101403.00
